KPNC/PNC METAR and TAF weather

Enter ICAO airport designator
Station Type Date Time Source
KPNC METAR 2022/12/08 12:53 UTC NOAA

KPNC 081253Z AUTO 14003KT 4SM BR OVC004 08/07 A3015 RMK AO2 RAB37E46 SLP208 P0000 T00830072


Station Type Date Time Source
KPNC Decoded METAR 2022/12/08 12:53 UTC NOAA

PONCA CITY MUNICIPAL AIRPORT, OK, United States (KPNC) 36-44N 97-06W 308M
Dec 08, 2022 - 07:53 AM EST / 2022.12.08 1253 UTC
Wind: from the SE (140 degrees) at 3 MPH (3 KT):0
Visibility: 4 mile(s):0
Sky conditions: overcast
Weather: mist
Precipitation last hour: A trace
Temperature: 46.9 F (8.3 C)
Dew Point: 45.0 F (7.2 C)
Relative Humidity: 92%
Pressure (altimeter): 30.15 in. Hg (1020 hPa)
ob: KPNC 081253Z AUTO 14003KT 4SM BR OVC004 08/07 A3015 RMK AO2 RAB37E46 SLP208 P0000 T00830072
cycle: 13

Station Type Date Time Source
KPNC TAF 2022/12/08 12:22 UTC NOAA

TAF KPNC 081120Z 0812/0912 09005KT 5SM -RA BR OVC012
TEMPO 0812/0813 2SM -RA BR OVC004
FM081500 14006KT 5SM BR OVC012
FM082000 19010KT P6SM OVC009
FM090100 34006KT P6SM SCT250
FM090600 01005KT P6SM OVC015

Example: see airport list